MCO weather

Orlando International Airport
Orlando, Florida, United States

Public forecast

Using degrees Fahrenheit for public forecast. Weather courtesy of forecast.io.

METAR (pilot weather report)

Retrieved 2018/04/26 19:53 UTC (37 minutes ago):

KMCO 261953Z VRB05G15KT 10SM FEW050 FEW200 28/14 A2987 RMK AO2 SLP113 T02780144

TAF (pilot weather forecast)

Retrieved 2018/04/26 18:30 UTC (2 hours ago):

TAF KMCO 261727Z 2618/2724 24008KT P6SM SCT045 SCT250 FM270100 25005KT P6SM SCT250 FM271400 24008KT P6SM SCT025 FM271900 25008KT P6SM VCTS BKN040CB FM272300 27007KT P6SM FEW040 BKN250